Odiham, United Kingdom
Current Conditions -  °F | °C
As of 2:50 PM on Monday 24 Nov 2014 (Local Time) from EGVO Reporting Station
Clear Clear  
Wind Chill: 45°   Ceiling: Unl
Heat Index: 45°   Visibility: 6mi
Dew Point: 39°   Wind: 3mph
Humidity: 81%   Direction: 340°NNW
Pressure: 30.3"   Gusts: NA
Location:  51.25°N, 0.94°W
Report Text: EGVO 241450Z 34003KT CAVOK 07/04 Q1026 BLU NOSIG
Loading
Personal Weather Stations






























Interactive Weather Map New forecast layout! Learn more

10-Day Weather Forecast

Advertisements
Track Severe Weather on mobile